Time;durP1;ratioP1;P1;durP2;ratioP2;P2;SDS_P1;SDS_P2;PMS_P1;PMS_P2;Temp;Humidity;BMP_temperature;BMP_pressure;BME280_temperature;BME280_humidity;BME280_pressure;Samples;Min_cycle;Max_cycle;Signal;HPM_P1;HPM_P2
2022/07/24 00:01:10;;;;;;;;;;;16.10;99.90;;;;;;5121546;27;19970;-78
2022/07/24 00:03:36;;;;;;;;;;;16.10;99.90;;;;;;5138376;27;19923;-79
2022/07/24 00:06:01;;;;;;;;;;;16.10;99.90;;;;;;5138548;27;19923;-78
2022/07/24 00:08:27;;;;;;;;;;;16.10;99.90;;;;;;5138030;27;19923;-79
2022/07/24 00:10:52;;;;;;;;;;;16.10;99.90;;;;;;5138056;27;19969;-79
2022/07/24 00:13:18;;;;;;;;;;;16.10;99.90;;;;;;5138196;27;19927;-79
2022/07/24 00:15:43;;;;;;;;;;;16.10;99.90;;;;;;5138224;27;20006;-79
2022/07/24 00:18:09;;;;;;;;;;;16.00;99.90;;;;;;5138249;27;19923;-79
2022/07/24 00:20:35;;;;;;;;;;;16.00;99.90;;;;;;5138041;27;19923;-79
2022/07/24 00:23:00;;;;;;;;;;;16.00;99.90;;;;;;5121058;27;19923;-79
2022/07/24 00:25:26;;;;;;;;;;;16.00;99.90;;;;;;5120846;27;19949;-79
2022/07/24 00:27:51;;;;;;;;;;;16.00;99.90;;;;;;5104193;27;19971;-80
2022/07/24 00:30:17;;;;;;;;;;;16.00;99.90;;;;;;5120703;27;19977;-79
2022/07/24 00:32:42;;;;;;;;;;;15.90;99.90;;;;;;5137827;27;19923;-78
2022/07/24 00:35:08;;;;;;;;;;;15.90;99.90;;;;;;5120858;27;19930;-78
2022/07/24 00:37:34;;;;;;;;;;;15.80;99.90;;;;;;5103580;27;19927;-78
2022/07/24 00:39:59;;;;;;;;;;;15.80;99.90;;;;;;5137845;27;19992;-79
2022/07/24 00:42:25;;;;;;;;;;;15.80;99.90;;;;;;5137771;27;19926;-79
2022/07/24 00:44:51;;;;;;;;;;;15.80;99.90;;;;;;5103827;27;19970;-79
2022/07/24 00:47:16;;;;;;;;;;;15.80;99.90;;;;;;5120364;27;19927;-79
2022/07/24 00:49:42;;;;;;;;;;;15.80;99.90;;;;;;5120331;27;19930;-79
2022/07/24 00:52:07;;;;;;;;;;;15.80;99.90;;;;;;5120536;27;20026;-79
2022/07/24 00:54:33;;;;;;;;;;;15.80;99.90;;;;;;5120213;27;20011;-79
2022/07/24 00:56:58;;;;;;;;;;;15.80;99.90;;;;;;5137614;27;19923;-79
2022/07/24 00:59:24;;;;;;;;;;;15.80;99.90;;;;;;5120263;27;19923;-79
2022/07/24 01:01:50;;;;;;;;;;;15.80;99.90;;;;;;5137485;27;19923;-79
2022/07/24 01:04:15;;;;;;;;;;;15.80;99.90;;;;;;5120402;27;19962;-79
2022/07/24 01:06:42;;;;;;;;;;;15.80;99.90;;;;;;5120132;27;19923;-79
2022/07/24 01:09:07;;;;;;;;;;;15.80;99.90;;;;;;5120140;27;19923;-79
2022/07/24 01:11:33;;;;;;;;;;;15.80;99.90;;;;;;5120179;27;20367;-78
2022/07/24 01:13:59;;;;;;;;;;;15.70;99.90;;;;;;5137311;27;20326;-79
2022/07/24 01:16:24;;;;;;;;;;;15.70;99.90;;;;;;5119531;27;19946;-78
2022/07/24 01:18:50;;;;;;;;;;;15.70;99.90;;;;;;5120104;27;19923;-79
2022/07/24 01:21:16;;;;;;;;;;;15.70;99.90;;;;;;5120034;27;19931;-79
2022/07/24 01:23:41;;;;;;;;;;;15.70;99.90;;;;;;5137006;27;19971;-79
2022/07/24 01:26:07;;;;;;;;;;;15.70;99.90;;;;;;5119998;27;19923;-79
2022/07/24 01:28:33;;;;;;;;;;;15.70;99.90;;;;;;5119437;27;19946;-79
2022/07/24 01:30:59;;;;;;;;;;;15.70;99.90;;;;;;5136448;27;19923;-79
2022/07/24 01:33:24;;;;;;;;;;;15.70;99.90;;;;;;5137042;27;19930;-79
2022/07/24 01:35:51;;;;;;;;;;;15.70;99.90;;;;;;5136833;27;19924;-79
2022/07/24 01:38:17;;;;;;;;;;;15.70;99.90;;;;;;5119976;27;19931;-79
2022/07/24 01:40:45;;;;;;;;;;;15.80;99.90;;;;;;5136828;27;19923;-79
2022/07/24 01:43:10;;;;;;;;;;;15.70;99.90;;;;;;5136709;27;19930;-78
2022/07/24 01:45:36;;;;;;;;;;;15.70;99.90;;;;;;5136435;27;20025;-79
2022/07/24 01:48:02;;;;;;;;;;;15.70;99.90;;;;;;5136903;27;19930;-79
2022/07/24 01:50:28;;;;;;;;;;;15.70;99.90;;;;;;5138673;27;19923;-79
2022/07/24 01:52:53;;;;;;;;;;;15.70;99.90;;;;;;5140826;27;20359;-79
2022/07/24 01:55:20;;;;;;;;;;;15.60;99.90;;;;;;5141114;27;19923;-79
2022/07/24 01:57:46;;;;;;;;;;;15.60;99.90;;;;;;5123839;27;19923;-79
2022/07/24 02:00:12;;;;;;;;;;;15.60;99.90;;;;;;5140987;27;20386;-79
2022/07/24 02:02:38;;;;;;;;;;;15.60;99.90;;;;;;5140787;27;20010;-78
2022/07/24 02:05:04;;;;;;;;;;;15.60;99.90;;;;;;5140883;27;20383;-79
2022/07/24 02:07:30;;;;;;;;;;;15.60;99.90;;;;;;5123693;27;19985;-80
2022/07/24 02:09:55;;;;;;;;;;;15.60;99.90;;;;;;5123517;27;19927;-79
2022/07/24 02:12:21;;;;;;;;;;;15.60;99.90;;;;;;5140775;27;19930;-79
2022/07/24 02:14:46;;;;;;;;;;;15.60;99.90;;;;;;5140590;27;20086;-79
2022/07/24 02:17:12;;;;;;;;;;;15.60;99.90;;;;;;5123127;27;19923;-79
2022/07/24 02:19:37;;;;;;;;;;;15.60;99.90;;;;;;5123261;27;19968;-79
2022/07/24 02:22:03;;;;;;;;;;;15.60;99.90;;;;;;5123416;27;19923;-79
2022/07/24 02:24:29;;;;;;;;;;;15.60;99.90;;;;;;5106430;27;19924;-79
2022/07/24 02:26:55;;;;;;;;;;;15.60;99.90;;;;;;5140248;27;19976;-79
2022/07/24 02:29:21;;;;;;;;;;;15.60;99.90;;;;;;5123320;27;19927;-79
2022/07/24 02:31:46;;;;;;;;;;;15.60;99.90;;;;;;5140303;27;20362;-79
2022/07/24 02:34:12;;;;;;;;;;;15.60;99.90;;;;;;5122883;27;19995;-78
2022/07/24 02:36:37;;;;;;;;;;;15.60;99.90;;;;;;5140154;27;19923;-78
2022/07/24 02:39:03;;;;;;;;;;;15.60;99.90;;;;;;5140350;27;20021;-78
2022/07/24 02:41:29;;;;;;;;;;;15.70;99.90;;;;;;5123165;27;19980;-78
2022/07/24 02:43:55;;;;;;;;;;;15.60;99.90;;;;;;5139694;27;19923;-79
2022/07/24 02:46:21;;;;;;;;;;;15.60;99.90;;;;;;5123235;27;19924;-78
2022/07/24 02:48:46;;;;;;;;;;;15.70;99.90;;;;;;5139894;27;19934;-78
2022/07/24 02:51:12;;;;;;;;;;;15.70;99.90;;;;;;5139383;27;20372;-79
2022/07/24 02:53:38;;;;;;;;;;;15.70;99.90;;;;;;5139932;27;19966;-79
2022/07/24 02:56:03;;;;;;;;;;;15.70;99.90;;;;;;5122847;27;19923;-78
2022/07/24 02:58:29;;;;;;;;;;;15.60;99.90;;;;;;5122882;27;20354;-78
2022/07/24 03:00:55;;;;;;;;;;;15.60;99.90;;;;;;5138790;27;19934;-79
2022/07/24 03:03:20;;;;;;;;;;;15.70;99.90;;;;;;5122271;27;20296;-78
2022/07/24 03:05:46;;;;;;;;;;;15.60;99.90;;;;;;5139621;27;19965;-78
2022/07/24 03:08:11;;;;;;;;;;;15.60;99.90;;;;;;5139398;27;19923;-78
2022/07/24 03:10:37;;;;;;;;;;;15.50;99.90;;;;;;5122119;27;19923;-80
2022/07/24 03:13:03;;;;;;;;;;;15.50;99.90;;;;;;5122478;27;20381;-78
2022/07/24 03:15:28;;;;;;;;;;;15.50;99.90;;;;;;5139382;27;19923;-78
2022/07/24 03:17:55;;;;;;;;;;;15.50;99.90;;;;;;5122209;27;19923;-79
2022/07/24 03:20:21;;;;;;;;;;;15.50;99.90;;;;;;5122363;27;19997;-78
2022/07/24 03:22:47;;;;;;;;;;;15.50;99.90;;;;;;5121832;27;20402;-78
2022/07/24 03:25:13;;;;;;;;;;;15.50;99.90;;;;;;5122264;27;19923;-78
2022/07/24 03:27:38;;;;;;;;;;;15.60;99.90;;;;;;5139057;27;19930;-78
2022/07/24 03:30:04;;;;;;;;;;;15.50;99.90;;;;;;5104970;27;19974;-78
2022/07/24 03:32:30;;;;;;;;;;;15.50;99.90;;;;;;5139431;27;19956;-78
2022/07/24 03:34:56;;;;;;;;;;;15.50;99.90;;;;;;5139080;27;20310;-78
2022/07/24 03:37:21;;;;;;;;;;;15.50;99.90;;;;;;5122087;27;19927;-78
2022/07/24 03:39:47;;;;;;;;;;;15.50;99.90;;;;;;5138910;27;19930;-78
2022/07/24 03:42:12;;;;;;;;;;;15.40;99.90;;;;;;5139063;27;20367;-78
2022/07/24 03:44:38;;;;;;;;;;;15.50;99.90;;;;;;5121938;27;20403;-78
2022/07/24 03:47:04;;;;;;;;;;;15.50;99.90;;;;;;5121380;27;20262;-78
2022/07/24 03:49:29;;;;;;;;;;;15.50;99.90;;;;;;5138806;27;19933;-78
2022/07/24 03:51:55;;;;;;;;;;;15.50;99.90;;;;;;5121553;27;19926;-79
2022/07/24 03:54:21;;;;;;;;;;;15.50;99.90;;;;;;5138801;27;19970;-78
2022/07/24 03:56:47;;;;;;;;;;;15.50;99.90;;;;;;5104604;27;19931;-78
2022/07/24 03:59:12;;;;;;;;;;;15.50;99.90;;;;;;5121648;27;19987;-78
2022/07/24 04:01:38;;;;;;;;;;;15.50;99.90;;;;;;5138794;27;19949;-78
2022/07/24 04:04:07;;;;;;;;;;;15.50;99.90;;;;;;5138381;27;19967;-78
2022/07/24 04:06:33;;;;;;;;;;;15.50;99.90;;;;;;5121328;27;19930;-78
2022/07/24 04:08:59;;;;;;;;;;;15.50;99.90;;;;;;5138385;27;20019;-78
2022/07/24 04:11:25;;;;;;;;;;;15.50;99.90;;;;;;5120873;27;19930;-78
2022/07/24 04:13:50;;;;;;;;;;;15.50;99.90;;;;;;5137651;27;20347;-78
2022/07/24 04:16:16;;;;;;;;;;;15.50;99.90;;;;;;5137792;27;20010;-78
2022/07/24 04:18:41;;;;;;;;;;;15.50;99.90;;;;;;5121241;27;19923;-78
2022/07/24 04:21:07;;;;;;;;;;;15.60;99.90;;;;;;5138070;27;20019;-79
2022/07/24 04:23:32;;;;;;;;;;;15.60;99.90;;;;;;5138281;27;19923;-78
2022/07/24 04:25:58;;;;;;;;;;;15.60;99.90;;;;;;5120836;27;20324;-78
2022/07/24 04:28:24;;;;;;;;;;;15.60;99.90;;;;;;5138305;27;19931;-78
2022/07/24 04:30:49;;;;;;;;;;;15.60;99.90;;;;;;5137641;27;19981;-79
2022/07/24 04:33:15;;;;;;;;;;;15.60;99.90;;;;;;5120894;27;19923;-78
2022/07/24 04:35:40;;;;;;;;;;;15.70;99.90;;;;;;5120859;27;19923;-78
2022/07/24 04:38:06;;;;;;;;;;;15.70;99.90;;;;;;5120606;27;19974;-79
2022/07/24 04:40:31;;;;;;;;;;;15.70;99.90;;;;;;5137518;27;19922;-78
2022/07/24 04:42:57;;;;;;;;;;;15.70;99.90;;;;;;5120610;27;19923;-79
2022/07/24 04:45:23;;;;;;;;;;;15.70;99.90;;;;;;5137908;27;20426;-78
2022/07/24 04:47:48;;;;;;;;;;;15.70;99.90;;;;;;5137618;27;19923;-82
2022/07/24 04:50:14;;;;;;;;;;;15.80;99.90;;;;;;5137193;27;19923;-79
2022/07/24 04:52:39;;;;;;;;;;;15.80;99.90;;;;;;5120633;27;20063;-78
2022/07/24 04:55:05;;;;;;;;;;;15.90;99.90;;;;;;5120035;27;19923;-78
2022/07/24 04:57:31;;;;;;;;;;;15.90;99.90;;;;;;5103576;27;19929;-78
2022/07/24 04:59:56;;;;;;;;;;;15.90;99.90;;;;;;5120269;27;19927;-78
2022/07/24 05:02:22;;;;;;;;;;;15.90;99.90;;;;;;5137591;27;20005;-78
2022/07/24 05:04:47;;;;;;;;;;;16.00;99.90;;;;;;5120277;27;19923;-78
2022/07/24 05:07:13;;;;;;;;;;;16.00;99.90;;;;;;5137158;27;19931;-78
2022/07/24 05:09:38;;;;;;;;;;;16.10;99.90;;;;;;5137329;27;19930;-78
2022/07/24 05:12:04;;;;;;;;;;;16.10;99.90;;;;;;5137155;27;20340;-78
2022/07/24 05:14:30;;;;;;;;;;;16.20;99.90;;;;;;5119886;27;19946;-78
2022/07/24 05:16:55;;;;;;;;;;;16.30;99.90;;;;;;5119347;27;19924;-79
2022/07/24 05:19:21;;;;;;;;;;;16.30;99.90;;;;;;5137325;27;20435;-78
2022/07/24 05:21:46;;;;;;;;;;;16.40;99.90;;;;;;5120081;27;20021;-80
2022/07/24 05:24:12;;;;;;;;;;;16.60;99.90;;;;;;5136246;27;19927;-78
2022/07/24 05:26:37;;;;;;;;;;;16.70;99.90;;;;;;5137060;27;19923;-78
2022/07/24 05:29:05;;;;;;;;;;;16.80;99.90;;;;;;5119959;27;20018;-79
2022/07/24 05:31:31;;;;;;;;;;;17.00;99.90;;;;;;5119877;27;19923;-78
2022/07/24 05:33:58;;;;;;;;;;;17.10;99.90;;;;;;5119345;27;20397;-79
2022/07/24 05:36:24;;;;;;;;;;;17.20;99.90;;;;;;5119933;27;19934;-79
2022/07/24 05:38:49;;;;;;;;;;;17.20;99.90;;;;;;5119864;27;19927;-79
2022/07/24 05:41:15;;;;;;;;;;;17.30;99.90;;;;;;5136509;27;19923;-79
2022/07/24 05:43:41;;;;;;;;;;;17.30;99.90;;;;;;5119808;27;20023;-78
2022/07/24 05:46:06;;;;;;;;;;;17.30;99.90;;;;;;5136751;27;19952;-78
2022/07/24 05:48:32;;;;;;;;;;;17.30;99.90;;;;;;5119759;27;19946;-78
2022/07/24 05:50:57;;;;;;;;;;;17.30;99.90;;;;;;5119281;27;19927;-79
2022/07/24 05:53:23;;;;;;;;;;;17.30;99.90;;;;;;5119714;27;19929;-78
2022/07/24 05:55:49;;;;;;;;;;;17.30;99.90;;;;;;5136881;27;20320;-78
2022/07/24 05:58:15;;;;;;;;;;;17.30;99.90;;;;;;5119487;27;19923;-79
2022/07/24 06:00:40;;;;;;;;;;;17.40;99.90;;;;;;5136703;27;20401;-78
2022/07/24 06:03:06;;;;;;;;;;;17.50;99.90;;;;;;5119494;27;19950;-79
2022/07/24 06:05:32;;;;;;;;;;;17.60;99.90;;;;;;5119597;27;19933;-78
2022/07/24 06:07:57;;;;;;;;;;;17.70;99.90;;;;;;5119716;27;20261;-79
2022/07/24 06:10:23;;;;;;;;;;;17.90;99.90;;;;;;5136443;27;20375;-78
2022/07/24 06:12:48;;;;;;;;;;;17.90;99.90;;;;;;5136399;27;19923;-78
2022/07/24 06:15:14;;;;;;;;;;;18.10;99.90;;;;;;5136201;27;20018;-79
2022/07/24 06:17:40;;;;;;;;;;;18.20;99.90;;;;;;5136745;27;19923;-78
2022/07/24 06:20:06;;;;;;;;;;;18.40;99.90;;;;;;5136376;27;19923;-79
2022/07/24 06:22:32;;;;;;;;;;;18.50;99.90;;;;;;5119517;27;20327;-79
2022/07/24 06:24:58;;;;;;;;;;;18.70;99.90;;;;;;5136602;27;19923;-79
2022/07/24 06:27:23;;;;;;;;;;;18.90;99.90;;;;;;5119328;27;20009;-79
2022/07/24 06:29:49;;;;;;;;;;;19.10;99.90;;;;;;5136315;27;19979;-79
2022/07/24 06:32:14;;;;;;;;;;;19.30;99.90;;;;;;5119110;27;19927;-79
2022/07/24 06:34:40;;;;;;;;;;;19.40;99.90;;;;;;5119365;27;19923;-78
2022/07/24 06:37:05;;;;;;;;;;;19.60;99.90;;;;;;5139240;27;20018;-79
2022/07/24 06:39:31;;;;;;;;;;;19.70;99.90;;;;;;5123367;27;19930;-79
2022/07/24 06:41:57;;;;;;;;;;;19.90;99.90;;;;;;5123052;27;19931;-79
2022/07/24 06:44:22;;;;;;;;;;;19.90;99.90;;;;;;5139988;27;19972;-79
2022/07/24 06:46:48;;;;;;;;;;;19.90;99.90;;;;;;5140134;27;19946;-79
2022/07/24 06:49:14;;;;;;;;;;;19.90;99.90;;;;;;5122726;27;19974;-79
2022/07/24 06:51:39;;;;;;;;;;;20.00;99.90;;;;;;5122652;27;19923;-78
2022/07/24 06:54:05;;;;;;;;;;;20.10;99.90;;;;;;5139650;27;19923;-79
2022/07/24 06:56:31;;;;;;;;;;;20.20;99.90;;;;;;5140236;27;19927;-79
2022/07/24 06:58:58;;;;;;;;;;;20.20;99.90;;;;;;5122815;27;19988;-79
2022/07/24 07:01:25;;;;;;;;;;;20.20;99.90;;;;;;5122510;27;19934;-79
2022/07/24 07:03:54;;;;;;;;;;;20.30;99.90;;;;;;5122865;27;19923;-79
2022/07/24 07:06:20;;;;;;;;;;;20.30;99.90;;;;;;5122400;27;19923;-79
2022/07/24 07:08:45;;;;;;;;;;;20.40;99.90;;;;;;5122651;27;19952;-79
2022/07/24 07:11:11;;;;;;;;;;;20.40;99.90;;;;;;5122067;27;19929;-80
2022/07/24 07:13:36;;;;;;;;;;;20.40;99.90;;;;;;5122403;27;20370;-79
2022/07/24 07:16:03;;;;;;;;;;;20.40;99.90;;;;;;5122077;27;19974;-79
2022/07/24 07:18:28;;;;;;;;;;;20.40;99.90;;;;;;5122202;27;19923;-79
2022/07/24 07:20:54;;;;;;;;;;;20.40;99.90;;;;;;5139155;27;19930;-80
2022/07/24 07:23:23;;;;;;;;;;;20.40;99.90;;;;;;5139273;27;19929;-79
2022/07/24 07:25:49;;;;;;;;;;;20.40;99.90;;;;;;5139412;27;20013;-79
2022/07/24 07:28:15;;;;;;;;;;;20.40;99.90;;;;;;5139170;27;20114;-79
2022/07/24 07:30:40;;;;;;;;;;;20.40;99.90;;;;;;5139249;27;19923;-79
2022/07/24 07:33:06;;;;;;;;;;;20.40;99.90;;;;;;5122249;27;19923;-79
2022/07/24 07:35:31;;;;;;;;;;;20.40;99.90;;;;;;5138930;27;19927;-79
2022/07/24 07:37:57;;;;;;;;;;;20.50;99.90;;;;;;5139110;27;19973;-79
2022/07/24 07:40:24;;;;;;;;;;;20.50;99.90;;;;;;5104780;27;19923;-79
2022/07/24 07:42:50;;;;;;;;;;;20.50;99.90;;;;;;5122068;27;19923;-79
2022/07/24 07:45:15;;;;;;;;;;;20.40;99.90;;;;;;5138542;27;19991;-80
2022/07/24 07:47:41;;;;;;;;;;;20.40;99.90;;;;;;5138231;27;19923;-78
2022/07/24 07:50:07;;;;;;;;;;;20.30;99.90;;;;;;5121682;27;19953;-79
2022/07/24 07:52:32;;;;;;;;;;;20.30;99.90;;;;;;5138665;27;19963;-79
2022/07/24 07:54:58;;;;;;;;;;;20.30;99.90;;;;;;5138754;27;19923;-79
2022/07/24 07:57:23;;;;;;;;;;;20.20;99.90;;;;;;5138313;27;19977;-79
2022/07/24 07:59:49;;;;;;;;;;;20.20;99.90;;;;;;5138766;27;19923;-79
2022/07/24 08:02:15;;;;;;;;;;;20.30;99.90;;;;;;5138382;27;20018;-80
2022/07/24 08:04:41;;;;;;;;;;;20.50;99.90;;;;;;5104588;27;19923;-78
2022/07/24 08:07:07;;;;;;;;;;;20.60;99.90;;;;;;5121509;27;19934;-79
2022/07/24 08:09:32;;;;;;;;;;;20.90;99.90;;;;;;5121115;27;19934;-78
2022/07/24 08:11:58;;;;;;;;;;;21.20;99.90;;;;;;5138554;27;19923;-79
2022/07/24 08:14:23;;;;;;;;;;;21.40;99.90;;;;;;5121007;27;20336;-79
2022/07/24 08:16:49;;;;;;;;;;;21.50;99.90;;;;;;5134488;27;19927;-79
2022/07/24 08:19:14;;;;;;;;;;;21.50;99.90;;;;;;5100539;27;19923;-79
2022/07/24 08:21:40;;;;;;;;;;;21.40;99.90;;;;;;5117756;27;20025;-79
2022/07/24 08:24:06;;;;;;;;;;;21.40;99.90;;;;;;5134525;27;19931;-79
2022/07/24 08:26:32;;;;;;;;;;;21.60;99.90;;;;;;5134597;27;19927;-79
2022/07/24 08:28:58;;;;;;;;;;;21.80;99.90;;;;;;5117536;27;20298;-79
2022/07/24 08:31:25;;;;;;;;;;;22.00;99.90;;;;;;5117138;27;19930;-79
2022/07/24 08:33:50;;;;;;;;;;;22.10;99.90;;;;;;5117451;27;20436;-79
2022/07/24 08:36:16;;;;;;;;;;;22.20;99.90;;;;;;5134042;27;19966;-81
2022/07/24 08:38:42;;;;;;;;;;;22.30;99.90;;;;;;5117384;27;19924;-79
2022/07/24 08:41:07;;;;;;;;;;;22.30;99.90;;;;;;5134463;27;19924;-79
2022/07/24 08:43:33;;;;;;;;;;;22.40;99.90;;;;;;5134289;27;19931;-79
2022/07/24 08:45:59;;;;;;;;;;;22.50;99.90;;;;;;5117185;27;19923;-80
2022/07/24 08:48:26;;;;;;;;;;;22.60;99.90;;;;;;5116803;27;20394;-78
2022/07/24 08:50:52;;;;;;;;;;;22.60;99.90;;;;;;5134109;27;19931;-81
2022/07/24 08:53:22;;;;;;;;;;;22.70;99.90;;;;;;5134086;27;19923;-85
2022/07/24 08:55:48;;;;;;;;;;;22.70;99.90;;;;;;5116710;27;20371;-79
2022/07/24 08:58:13;;;;;;;;;;;22.80;99.90;;;;;;5133708;27;19924;-80
2022/07/24 09:00:39;;;;;;;;;;;22.80;99.90;;;;;;5116855;27;19923;-79
2022/07/24 09:03:04;;;;;;;;;;;22.90;99.90;;;;;;5116601;27;20018;-79
2022/07/24 09:05:34;;;;;;;;;;;23.00;99.90;;;;;;5116733;27;20021;-79
2022/07/24 09:08:10;;;;;;;;;;;23.10;99.90;;;;;;5116814;27;19924;-80
2022/07/24 09:10:35;;;;;;;;;;;23.20;99.90;;;;;;5116440;27;19924;-79
2022/07/24 09:13:11;;;;;;;;;;;23.30;99.90;;;;;;5116723;27;19923;-79
2022/07/24 09:15:43;;;;;;;;;;;23.40;99.90;;;;;;5115823;28;20324;-80
2022/07/24 09:18:10;;;;;;;;;;;23.60;99.90;;;;;;5116703;27;19924;-79
2022/07/24 09:20:37;;;;;;;;;;;23.60;99.90;;;;;;5133538;27;19924;-80
2022/07/24 09:23:03;;;;;;;;;;;23.60;99.90;;;;;;5133860;27;20022;-80
2022/07/24 09:25:28;;;;;;;;;;;23.60;99.90;;;;;;5133539;27;19966;-80
2022/07/24 09:27:55;;;;;;;;;;;23.70;99.90;;;;;;5116636;27;19943;-80
2022/07/24 09:30:21;;;;;;;;;;;23.80;99.90;;;;;;5116429;27;19923;-79
2022/07/24 09:32:55;;;;;;;;;;;23.80;99.90;;;;;;5133327;27;20064;-79
2022/07/24 09:35:29;;;;;;;;;;;23.90;99.90;;;;;;5133607;27;19974;-79
2022/07/24 09:37:56;;;;;;;;;;;24.00;99.90;;;;;;5133741;27;19923;-80
2022/07/24 09:40:27;;;;;;;;;;;24.00;99.90;;;;;;5116415;28;19923;-79
2022/07/24 09:42:55;;;;;;;;;;;24.10;99.90;;;;;;5116570;28;19969;-80
2022/07/24 09:45:21;;;;;;;;;;;24.40;99.90;;;;;;5116537;28;19961;-79
2022/07/24 09:47:52;;;;;;;;;;;24.70;99.90;;;;;;5116117;28;20419;-79
2022/07/24 09:50:17;;;;;;;;;;;25.10;99.90;;;;;;5116360;28;19992;-80
2022/07/24 09:52:43;;;;;;;;;;;25.30;99.90;;;;;;5099274;28;20356;-80
2022/07/24 09:55:19;;;;;;;;;;;25.40;99.90;;;;;;5116241;28;20366;-81
2022/07/24 09:57:45;;;;;;;;;;;25.40;99.90;;;;;;5116105;28;19988;-81
2022/07/24 10:00:11;;;;;;;;;;;25.30;99.90;;;;;;5133357;28;20359;-81
2022/07/24 10:02:36;;;;;;;;;;;25.30;99.90;;;;;;5116094;28;19923;-81
2022/07/24 10:05:03;;;;;;;;;;;25.20;99.90;;;;;;5116274;28;19923;-80
2022/07/24 10:07:29;;;;;;;;;;;25.00;99.90;;;;;;5133170;28;20367;-81
2022/07/24 10:09:59;;;;;;;;;;;25.20;99.90;;;;;;5098962;27;20428;-80
2022/07/24 10:12:29;;;;;;;;;;;25.30;99.90;;;;;;5137115;27;19958;-81
2022/07/24 10:14:58;;;;;;;;;;;25.30;99.90;;;;;;5120319;27;20438;-81
2022/07/24 10:17:49;;;;;;;;;;;25.40;99.90;;;;;;5119376;27;20360;-80
2022/07/24 10:20:19;;;;;;;;;;;25.30;99.90;;;;;;5120180;27;19976;-81
2022/07/24 10:23:00;;;;;;;;;;;25.30;99.90;;;;;;5137039;27;19923;-81
2022/07/24 10:25:27;;;;;;;;;;;25.40;99.90;;;;;;5137464;27;19924;-81
2022/07/24 10:27:54;;;;;;;;;;;25.60;99.90;;;;;;5137024;27;19923;-82
2022/07/24 10:30:21;;;;;;;;;;;25.50;99.90;;;;;;5119840;27;19928;-80
2022/07/24 10:32:48;;;;;;;;;;;25.40;99.90;;;;;;5119681;27;19927;-82
2022/07/24 10:35:17;;;;;;;;;;;25.30;99.90;;;;;;5119946;27;19924;-82
2022/07/24 10:37:48;;;;;;;;;;;25.30;99.90;;;;;;5136815;27;19923;-82
2022/07/24 10:40:14;;;;;;;;;;;25.40;99.90;;;;;;5136955;27;19923;-82
2022/07/24 10:42:58;;;;;;;;;;;25.70;99.90;;;;;;5119257;27;19931;-82
2022/07/24 10:45:28;;;;;;;;;;;25.70;99.90;;;;;;5136777;27;19924;-82
2022/07/24 10:47:54;;;;;;;;;;;25.70;99.90;;;;;;5119363;27;19923;-82
2022/07/24 10:50:19;;;;;;;;;;;25.40;99.90;;;;;;5119407;27;19984;-82
2022/07/24 10:52:45;;;;;;;;;;;25.40;99.90;;;;;;5102347;27;19927;-81
2022/07/24 10:55:23;;;;;;;;;;;25.30;99.90;;;;;;5119481;27;19930;-81
2022/07/24 10:57:54;;;;;;;;;;;25.30;99.90;;;;;;5136395;27;19930;-82
2022/07/24 11:00:22;;;;;;;;;;;25.60;99.90;;;;;;5136724;27;20272;-81
2022/07/24 11:02:55;;;;;;;;;;;25.80;99.90;;;;;;5136079;27;19923;-82
2022/07/24 11:05:34;;;;;;;;;;;26.10;99.90;;;;;;5136082;27;19970;-82
2022/07/24 11:08:13;;;;;;;;;;;26.30;99.90;;;;;;5136365;27;19927;-82
2022/07/24 11:10:45;;;;;;;;;;;26.30;99.90;;;;;;5136065;27;20299;-82
2022/07/24 11:13:29;;;;;;;;;;;26.30;99.90;;;;;;5136271;27;20324;-81
2022/07/24 11:16:10;;;;;;;;;;;26.20;99.90;;;;;;5118447;27;20294;-83
2022/07/24 11:18:36;;;;;;;;;;;26.30;99.90;;;;;;5118754;27;20256;-83
2022/07/24 11:21:01;;;;;;;;;;;26.40;99.90;;;;;;5135791;27;20299;-82
2022/07/24 11:23:27;;;;;;;;;;;26.40;99.90;;;;;;5100776;27;19992;-82
2022/07/24 11:26:11;;;;;;;;;;;26.60;99.90;;;;;;5135812;27;20015;-82
2022/07/24 11:28:37;;;;;;;;;;;26.60;99.90;;;;;;5135764;27;19974;-82
2022/07/24 11:31:03;;;;;;;;;;;26.80;99.90;;;;;;5135320;27;19965;-82
2022/07/24 11:33:29;;;;;;;;;;;27.20;99.90;;;;;;5118940;27;19924;-82
2022/07/24 11:35:55;;;;;;;;;;;27.40;99.90;;;;;;5135375;27;20337;-82
2022/07/24 11:38:27;;;;;;;;;;;27.60;99.90;;;;;;5118892;27;19971;-82
2022/07/24 11:41:03;;;;;;;;;;;27.80;99.90;;;;;;5118595;27;20007;-82
2022/07/24 11:43:29;;;;;;;;;;;28.10;99.90;;;;;;5135703;27;19931;-82
2022/07/24 11:45:54;;;;;;;;;;;28.30;99.90;;;;;;5118027;27;19930;-82
2022/07/24 11:48:20;;;;;;;;;;;28.50;99.40;;;;;;5135687;27;19943;-82
2022/07/24 11:50:46;;;;;;;;;;;28.80;98.90;;;;;;5135141;27;19963;-82
2022/07/24 11:53:12;;;;;;;;;;;28.90;98.30;;;;;;5118431;27;19970;-82
2022/07/24 11:55:37;;;;;;;;;;;28.80;97.90;;;;;;5135540;27;19928;-82
2022/07/24 11:58:03;;;;;;;;;;;29.00;97.50;;;;;;5101151;27;20350;-82
2022/07/24 12:00:29;;;;;;;;;;;29.10;97.90;;;;;;5135390;27;19976;-82
2022/07/24 12:02:58;;;;;;;;;;;29.20;98.10;;;;;;5118091;27;19927;-82
2022/07/24 12:05:25;;;;;;;;;;;29.30;97.50;;;;;;5135362;27;19924;-81
2022/07/24 12:07:51;;;;;;;;;;;29.30;97.20;;;;;;5117670;27;19967;-82
2022/07/24 12:10:23;;;;;;;;;;;29.60;98.50;;;;;;5117877;27;19927;-82
2022/07/24 12:12:50;;;;;;;;;;;29.80;98.10;;;;;;5117839;27;19931;-82
2022/07/24 12:15:15;;;;;;;;;;;30.20;98.10;;;;;;5136449;27;20363;-82
2022/07/24 12:18:01;;;;;;;;;;;30.30;96.80;;;;;;5121441;27;19930;-82
2022/07/24 12:20:27;;;;;;;;;;;30.30;97.10;;;;;;5138483;27;19934;-82
2022/07/24 12:22:52;;;;;;;;;;;30.30;96.60;;;;;;5121070;27;19923;-84
2022/07/24 12:25:18;;;;;;;;;;;30.50;95.50;;;;;;5138334;27;20263;-82
2022/07/24 12:27:45;;;;;;;;;;;30.70;96.10;;;;;;5120888;27;19923;-83
2022/07/24 12:30:21;;;;;;;;;;;31.00;96.20;;;;;;5120979;27;20017;-83
2022/07/24 12:32:58;;;;;;;;;;;30.80;95.30;;;;;;5138206;27;20374;-83
2022/07/24 12:35:24;;;;;;;;;;;30.90;94.50;;;;;;5137808;27;19923;-81
2022/07/24 12:37:50;;;;;;;;;;;30.80;94.60;;;;;;5120896;27;20378;-82
2022/07/24 12:40:45;;;;;;;;;;;30.80;94.20;;;;;;5120994;27;19948;-82
2022/07/24 12:43:12;;;;;;;;;;;30.90;95.40;;;;;;5120287;27;19923;-82
2022/07/24 12:45:38;;;;;;;;;;;31.10;95.10;;;;;;5137907;27;20369;-82
2022/07/24 12:48:22;;;;;;;;;;;31.20;95.10;;;;;;5120643;27;19929;-82
2022/07/24 12:50:58;;;;;;;;;;;31.10;93.90;;;;;;5137418;27;19923;-82
2022/07/24 12:53:25;;;;;;;;;;;31.30;94.70;;;;;;5120763;27;19928;-82
2022/07/24 12:56:06;;;;;;;;;;;31.30;94.20;;;;;;5120416;27;20283;-82
2022/07/24 12:58:48;;;;;;;;;;;31.10;93.80;;;;;;5137329;27;20328;-81
2022/07/24 13:01:14;;;;;;;;;;;31.20;94.10;;;;;;5120452;27;19923;-82
2022/07/24 13:03:40;;;;;;;;;;;31.30;93.90;;;;;;5137799;27;20282;-82
2022/07/24 13:06:05;;;;;;;;;;;31.20;94.20;;;;;;5120332;27;19923;-82
2022/07/24 13:08:31;;;;;;;;;;;31.20;94.10;;;;;;5120401;27;19984;-82
2022/07/24 13:10:57;;;;;;;;;;;31.10;94.00;;;;;;5119925;27;20490;-83
2022/07/24 13:13:22;;;;;;;;;;;31.20;93.90;;;;;;5120657;27;19923;-82
2022/07/24 13:15:48;;;;;;;;;;;31.40;94.00;;;;;;5133698;27;20022;-82
2022/07/24 13:18:13;;;;;;;;;;;31.80;93.90;;;;;;5099812;27;19924;-82
2022/07/24 13:20:39;;;;;;;;;;;31.80;94.00;;;;;;5116689;27;19940;-82
2022/07/24 13:23:05;;;;;;;;;;;32.10;93.20;;;;;;5116618;27;19923;-83
2022/07/24 13:25:30;;;;;;;;;;;32.20;92.70;;;;;;5133823;27;19923;-82
2022/07/24 13:27:56;;;;;;;;;;;32.30;92.40;;;;;;5116520;27;20363;-83
2022/07/24 13:30:21;;;;;;;;;;;32.10;92.00;;;;;;5116403;27;20013;-82
2022/07/24 13:32:47;;;;;;;;;;;32.10;92.30;;;;;;5133861;27;19927;-82
2022/07/24 13:35:12;;;;;;;;;;;32.30;92.50;;;;;;5133548;27;20018;-82
2022/07/24 13:37:38;;;;;;;;;;;32.60;92.30;;;;;;5133731;27;20287;-82
2022/07/24 13:40:06;;;;;;;;;;;32.90;92.40;;;;;;5116337;28;19924;-82
2022/07/24 13:42:32;;;;;;;;;;;32.90;91.00;;;;;;5100024;28;19923;-82
2022/07/24 13:44:58;;;;;;;;;;;33.10;91.20;;;;;;5132957;27;20019;-83
2022/07/24 13:47:23;;;;;;;;;;;33.50;91.20;;;;;;5133345;28;19927;-82
2022/07/24 13:49:49;;;;;;;;;;;33.70;91.10;;;;;;5116293;28;20452;-82
2022/07/24 13:52:15;;;;;;;;;;;34.00;91.90;;;;;;5133339;28;20000;-81
2022/07/24 13:54:41;;;;;;;;;;;34.00;90.00;;;;;;5116449;28;19927;-82
2022/07/24 13:57:06;;;;;;;;;;;33.90;90.20;;;;;;5115862;28;19946;-82
2022/07/24 13:59:32;;;;;;;;;;;33.70;90.10;;;;;;5116496;28;19923;-82
2022/07/24 14:01:58;;;;;;;;;;;34.10;90.60;;;;;;5116161;28;19930;-83
2022/07/24 14:04:23;;;;;;;;;;;34.20;88.20;;;;;;5133519;28;19923;-83
2022/07/24 14:06:49;;;;;;;;;;;34.40;87.10;;;;;;5116238;28;19931;-83
2022/07/24 14:09:15;;;;;;;;;;;34.50;87.60;;;;;;5116054;28;19927;-83
2022/07/24 14:11:41;;;;;;;;;;;34.80;89.80;;;;;;5115928;28;19957;-82
2022/07/24 14:14:06;;;;;;;;;;;34.90;85.60;;;;;;5116143;28;19923;-83